Time;durP1;ratioP1;P1;durP2;ratioP2;P2;SDS_P1;SDS_P2;PMS_P1;PMS_P2;Temp;Humidity;BMP_temperature;BMP_pressure;BME280_temperature;BME280_humidity;BME280_pressure;Samples;Min_cycle;Max_cycle;Signal;HPM_P1;HPM_P2
2024/01/17 05:14:54;;;;;;;19.35;11.85;;;;;;;;;;10386021;27;1993156;-74
2024/01/17 05:19:54;;;;;;;19.85;11.20;;;;;;;;;;10423037;28;20791;-74
2024/01/17 05:24:55;;;;;;;20.17;11.50;;;;;;;;;;10420837;28;20044;-73
2024/01/17 05:29:55;;;;;;;21.67;12.38;;;;;;;;;;10404782;28;20037;-75
2024/01/17 05:34:56;;;;;;;23.38;12.27;;;;;;;;;;10423471;28;20038;-75
2024/01/17 05:39:58;;;;;;;23.80;12.32;;;;;;;;;;10422288;28;20033;-76
2024/01/17 05:44:59;;;;;;;24.47;12.17;;;;;;;;;;10421411;28;20113;-76
2024/01/17 05:49:59;;;;;;;19.90;12.13;;;;;;;;;;10421913;28;20284;-74
2024/01/17 05:55:00;;;;;;;22.63;12.75;;;;;;;;;;10405703;28;20201;-76
2024/01/17 06:00:00;;;;;;;22.35;12.75;;;;;;;;;;10403345;28;20068;-75
2024/01/17 06:05:02;;;;;;;25.27;13.43;;;;;;;;;;10420842;28;20041;-77
2024/01/17 06:10:03;;;;;;;23.65;12.73;;;;;;;;;;10417486;28;20044;-76
2024/01/17 06:15:03;;;;;;;22.00;11.98;;;;;;;;;;10405346;28;20025;-77
2024/01/17 06:20:04;;;;;;;23.33;13.02;;;;;;;;;;10413001;28;20071;-77
2024/01/17 06:25:06;;;;;;;23.30;12.27;;;;;;;;;;10394524;28;20112;-78
2024/01/17 06:30:08;;;;;;;23.13;13.00;;;;;;;;;;10392250;28;20207;-75
2024/01/17 06:35:11;;;;;;;18.60;12.55;;;;;;;;;;10374040;28;20129;-75
2024/01/17 06:40:11;;;;;;;;;;;;;;;;;;10397490;28;20041;-77
2024/01/17 06:45:12;;;;;;;20.77;11.65;;;;;;;;;;10373923;28;20006;-77
2024/01/17 06:50:13;;;;;;;21.10;11.82;;;;;;;;;;10391095;28;20041;-74
2024/01/17 06:55:14;;;;;;;22.85;12.63;;;;;;;;;;10391369;28;20041;-77
2024/01/17 07:00:15;;;;;;;22.33;12.35;;;;;;;;;;10389453;28;20053;-76
2024/01/17 07:05:17;;;;;;;20.27;12.07;;;;;;;;;;10387506;28;20053;-75
2024/01/17 07:10:17;;;;;;;22.45;12.10;;;;;;;;;;10390246;28;20045;-75
2024/01/17 07:15:17;;;;;;;18.65;11.27;;;;;;;;;;10390210;28;20060;-73
2024/01/17 07:20:18;;;;;;;21.40;12.07;;;;;;;;;;10391034;28;20126;-75
2024/01/17 07:25:18;;;;;;;21.02;12.07;;;;;;;;;;10396137;28;20291;-75
2024/01/17 07:30:19;;;;;;;19.65;11.68;;;;;;;;;;10374023;28;20104;-75
2024/01/17 07:35:20;;;;;;;17.92;11.63;;;;;;;;;;10384673;28;20041;-75
2024/01/17 07:40:21;;;;;;;20.20;11.50;;;;;;;;;;10388729;28;20104;-73
2024/01/17 07:45:21;;;;;;;19.73;11.38;;;;;;;;;;10389753;28;20033;-75
2024/01/17 07:50:23;;;;;;;21.47;12.50;;;;;;;;;;10389129;28;20045;-74
2024/01/17 07:55:23;;;;;;;20.90;12.13;;;;;;;;;;10388746;28;20300;-77
2024/01/17 08:00:24;;;;;;;18.77;12.00;;;;;;;;;;10389508;28;20072;-74
2024/01/17 08:05:24;;;;;;;19.27;11.93;;;;;;;;;;10386870;28;20037;-75
2024/01/17 08:10:25;;;;;;;19.55;12.35;;;;;;;;;;10385828;28;20041;-73
2024/01/17 08:15:25;;;;;;;20.70;12.30;;;;;;;;;;10387418;28;20037;-74
2024/01/17 08:20:25;;;;;;;19.53;12.40;;;;;;;;;;10368483;28;20115;-74
2024/01/17 08:25:26;;;;;;;26.48;14.55;;;;;;;;;;10387435;28;20295;-75
2024/01/17 08:30:26;;;;;;;23.73;14.48;;;;;;;;;;10389850;28;20469;-73
2024/01/17 08:35:27;;;;;;;24.30;14.40;;;;;;;;;;10371220;28;20045;-74
2024/01/17 08:40:28;;;;;;;24.73;14.77;;;;;;;;;;10385142;28;20332;-74
2024/01/17 08:45:28;;;;;;;24.23;14.40;;;;;;;;;;10389132;28;20676;-73
2024/01/17 08:50:29;;;;;;;26.95;15.65;;;;;;;;;;10387152;28;20082;-74
2024/01/17 08:55:29;;;;;;;26.35;15.60;;;;;;;;;;10384730;28;20037;-73
2024/01/17 09:00:29;;;;;;;29.27;16.83;;;;;;;;;;10387502;28;20096;-74
2024/01/17 09:05:30;;;;;;;29.73;16.70;;;;;;;;;;10394001;28;20846;-74
2024/01/17 09:10:30;;;;;;;31.10;16.63;;;;;;;;;;10371787;28;20361;-75
2024/01/17 09:15:31;;;;;;;27.98;17.27;;;;;;;;;;10391062;28;20482;-76
2024/01/17 09:20:31;;;;;;;31.20;17.10;;;;;;;;;;10384794;28;20369;-74
2024/01/17 09:25:32;;;;;;;32.87;17.97;;;;;;;;;;10385952;28;20033;-75
2024/01/17 09:30:32;;;;;;;32.15;17.48;;;;;;;;;;10386914;28;20300;-73
2024/01/17 09:35:35;;;;;;;30.33;18.02;;;;;;;;;;10384963;28;20036;-73
2024/01/17 09:40:35;;;;;;;32.40;16.90;;;;;;;;;;10367095;28;20749;-75
2024/01/17 09:45:35;;;;;;;30.20;17.55;;;;;;;;;;10383511;28;20045;-75
2024/01/17 09:50:36;;;;;;;30.55;17.25;;;;;;;;;;10369177;28;20033;-74
2024/01/17 09:55:37;;;;;;;30.53;17.53;;;;;;;;;;10385652;28;20041;-73
2024/01/17 10:00:39;;;;;;;37.05;18.92;;;;;;;;;;10389328;28;20614;-74
2024/01/17 10:05:40;;;;;;;32.75;18.08;;;;;;;;;;10391170;28;20061;-75
2024/01/17 10:10:40;;;;;;;37.45;18.42;;;;;;;;;;10377792;28;20561;-74
2024/01/17 10:15:44;;;;;;;34.88;18.90;;;;;;;;;;10377086;28;20076;-77
2024/01/17 10:20:45;;;;;;;38.25;20.30;;;;;;;;;;10353830;28;20140;-75
2024/01/17 10:25:45;;;;;;;37.70;19.63;;;;;;;;;;10393328;28;20115;-76
2024/01/17 10:30:46;;;;;;;36.95;18.63;;;;;;;;;;10394799;28;20715;-77
2024/01/17 10:35:48;;;;;;;34.25;18.73;;;;;;;;;;10392894;28;20053;-76
2024/01/17 15:16:49;;;;;;;22.77;12.38;;;;;;;;;;10552733;27;1224610;-75
2024/01/17 15:21:49;;;;;;;25.80;12.27;;;;;;;;;;10536582;28;20408;-75
2024/01/17 15:26:49;;;;;;;21.40;12.60;;;;;;;;;;10536508;28;20208;-78
2024/01/17 15:31:50;;;;;;;19.97;12.03;;;;;;;;;;10530208;28;20308;-76
2024/01/17 15:36:50;;;;;;;22.07;12.23;;;;;;;;;;10537299;28;20043;-77
2024/01/17 15:41:50;;;;;;;24.30;12.65;;;;;;;;;;10528191;28;20285;-73
2024/01/17 15:46:51;;;;;;;19.55;11.27;;;;;;;;;;10536534;28;20028;-76
2024/01/17 15:51:51;;;;;;;20.43;12.13;;;;;;;;;;10534556;28;20059;-74
2024/01/17 16:01:54;;;;;;;19.75;12.13;;;;;;;;;;10544129;27;1263544;-74
2024/01/17 16:06:54;;;;;;;20.17;12.25;;;;;;;;;;10547794;28;20032;-73
2024/01/17 16:11:55;;;;;;;19.60;11.67;;;;;;;;;;10545665;28;20217;-74
2024/01/17 16:16:55;;;;;;;23.70;12.70;;;;;;;;;;10557842;28;20073;-73
2024/01/17 16:21:55;;;;;;;22.50;12.67;;;;;;;;;;10572117;27;20619;-74
2024/01/17 16:36:46;;;;;;;22.13;13.85;;;;;;;;;;10487619;27;2497472;-77
2024/01/17 16:43:42;;;;;;;22.40;13.23;;;;;;;;;;10375808;28;20421;-73
2024/01/17 16:53:33;;;;;;;23.25;13.50;;;;;;;;;;10349377;28;20872;-74
2024/01/17 16:58:33;;;;;;;24.92;14.30;;;;;;;;;;10328017;28;20047;-72
2024/01/17 17:03:33;;;;;;;26.85;15.10;;;;;;;;;;10319962;28;20030;-72
2024/01/17 17:08:34;;;;;;;31.57;15.73;;;;;;;;;;10310582;28;20038;-73
2024/01/17 21:57:07;;;;;;;21.75;13.73;;;;;;;;;;10567628;27;1246525;-76
